メインページ
METAR-TAF:

METAR-TAF

空港 :

アドルフォ・スアレス・マドリード=バラハス空港

マドリード, スペイン

緯度: 40-27N, 経度: 003-33W, 海抜: 609m

現時点の気象観測

当レポートは37分前の03:30(UTC)に作成
北西の風 3kt
気温 7°C
湿度 57%
気圧 1023 hPa
視程10km以上
1,500メートル以下は雲なし、積乱雲なし

METAR: LEMD 250330Z 32003KT CAVOK 07/M01 Q1023 NOSIG

時間: 05:07 (04:07 UTC)

予報

当レポートは5時間7分前の23:00(UTC)に作成
予報は25日の 00時(UTC)から 26日の 06時(UTC)まで有効
変向風 5kt
視程10km以上
1,500メートル以下は雲なし、積乱雲なし
25日の 18時(UTC)から 25日の 20時(UTC)まで徐々に
北/北東の風 12kt
確率 40% :
25日の 20時(UTC)から 26日の 06時(UTC)まで一時的に
北/北東の風 15kt、最大25ktの突風を伴う

TAF: LEMD 242300Z 2500/2606 VRB05KT CAVOK TX22/2515Z TN02/2606Z BECMG 2518/2520 02012KT PROB40 TEMPO 2520/2606 02015G25KT

4,000以上の空港の気象観測と天気予報(METAR報とTAF報)

利用可能な観測所は地図上に黄色い丸と赤い丸で示す。

丸の上にカーソルを重ねると観測所名を参照できる。

次にクリックすると気象観測と天気予報を参照できる。

マップの切り替え:黒色「×」印の緑ボタンをクリックして拡大、「-」印の緑ボタンをクリックして縮小、緑色の三角印をクリックして隣りの地図に切り替え


METAR-TAF: